Aeroporto :
LOGIN :

Iscrizione | Disclaimer

   EN    FR    IT 

 










Sommario :    VFR   VFR Marginale   IFR   IFR Intensivo   IFR Molto Intensivo
Visibilità : 
Base nubi : 
>= 8 km
>= 3000ft
5 / 8 km
1000 / 3000 ft
1500m / 5 km
500 / 1000 ft
800 / 1500m
200 / 500 ft
< 800m
< 200 ft
Simboli :   Temporali  Nebbia  Neve Forte  Precipitazioni Forti  Vento > 20 kt
SIGMETs :   Varie  Temporali  Ghiacco  Turbolenza  Onda orograficha  Ceneri Vulcaniche






- Altitudine del aeroporto : 464 ft
- Codice IATA : EVX


LFOE - Evreux

ULTIMO METAR :
  • 171830Z AUTO 24010KT 9999 FEW036/// SCT042/// ///TCU 07/03 Q1021 BECMG SCT035

METARs OBSOLETI :
  • 171800Z AUTO 23010KT CAVOK 07/03 Q1021 TEMPO 29025G40KT 2000 SHRAGS BKN030CB
  • 171730Z AUTO 24009KT CAVOK 07/03 Q1020 TEMPO 29025G40KT 2000 SHRAGS BKN030CB
  • 171700Z AUTO 24011KT 210V270 CAVOK 08/03 Q1019 TEMPO 29025G40KT 2000 SHRAGS BKN030CB
  • 171630Z AUTO 27013KT 9999 FEW029 SCT037 OVC130 08/03 Q1019 TEMPO 29025G40KT 2000 SHRAGS BKN030CB
  • 171600Z AUTO 25015KT 220V280 9999 SCT031/// SCT047/// BKN054/// ///CB 08/04 Q1019 TEMPO 29025G40KT 2000 SHRAGS

TAF TAF LFOE
Valido dal 17 a 15 ore il 18 a 15 ore UTC


171400Z 1715/1815 25015G30KT 9999 SCT035
TEMPO 1715/1719 29025G35KT 3000 SHRA BKN030CB
PROB40
TEMPO 1715/1719 29025G40KT 2000 SHRAGS
BECMG 1719/1722 24012G22KT
TEMPO 1803/1806 SCT008



MetMap, La meteo Aeronautica in un colpo d'occhio ! - Copyright ORBIFLY Dicembre 2007 - Disclaimer

ORBIFLY MET'MAP TEAM :

Programmazione e sviluppo : Alexandra Zaïnal
Concezione : Baudouin d'Aumeries
Aiuto per la programmazione : Marc-Olivier Méhu
Supporto tecnico e logistico : Manuel Goepfert
Aiuto per la traduzione : Arnaldo La Scala

Contatto : metmap@orbifly.com




FONTI E CREDITI :

   NOAA